Station Historical Data
Daily Summary for February 26, 2017 Units:  Both    English   Metric
« Previous Day
Next Day »
Daily Weekly Monthly Yearly Custom
  High: Low: Average:
Temperature: 35.9 °F /  2.2 °C 26.9 °F /  -2.8 °C 30.4 °F /  -0.9 °C
Dew Point: 25.1 °F /  -3.8 °C 15.2 °F /  -9.3 °C 20.2 °F /  -6.6 °C
Humidity: 79% 49% 66%
Wind Speed: 17.0mph /  27.4km/h - 7.3mph /  11.7km/h
Wind Gust: 26.0mph /  41.8km/h - -
Wind- - WSW
Pressure: 30.12 in /  1019.9 hPa 29.84 in /  1010.4 hPa -
Precipitation: 0.00 in /  0 mm    
Historical Graphs
 
 
Tabular Data for February 26, 2017
Time Temperature Dew Point Pressure Wind Wind Speed Wind Gust Humidity Rainfall Rate (Hourly)
00:04 28.7 °F /  -1.8 °C 21.8 °F /  -5.7 °C 29.84in /  1010.4hPa West 5.0mph /  8km/h 13.0mph /  20.9km/h 75% 0.00in /  0mm
00:09 28.6 °F /  -1.9 °C 21.7 °F /  -5.7 °C 29.85in /  1010.7hPa West 6.0mph /  9.7km/h 13.0mph /  20.9km/h 75% 0.00in /  0mm
00:14 28.7 °F /  -1.8 °C 21.5 °F /  -5.8 °C 29.85in /  1010.7hPa West 7.0mph /  11.3km/h 13.0mph /  20.9km/h 74% 0.00in /  0mm
00:19 28.6 °F /  -1.9 °C 21.0 °F /  -6.1 °C 29.85in /  1010.7hPa West 7.0mph /  11.3km/h 13.0mph /  20.9km/h 73% 0.00in /  0mm
00:24 28.6 °F /  -1.9 °C 20.7 °F /  -6.3 °C 29.85in /  1010.7hPa West 7.0mph /  11.3km/h 16.0mph /  25.7km/h 72% 0.00in /  0mm
00:29 28.6 °F /  -1.9 °C 20.4 °F /  -6.4 °C 29.86in /  1011.1hPa West 8.0mph /  12.9km/h 19.0mph /  30.6km/h 71% 0.00in /  0mm
00:34 28.6 °F /  -1.9 °C 20.4 °F /  -6.4 °C 29.86in /  1011.1hPa West 8.0mph /  12.9km/h 19.0mph /  30.6km/h 71% 0.00in /  0mm
00:39 28.5 °F /  -1.9 °C 20.3 °F /  -6.5 °C 29.86in /  1011.1hPa WSW 10.0mph /  16.1km/h 13.0mph /  20.9km/h 71% 0.00in /  0mm
00:44 28.5 °F /  -1.9 °C 20.0 °F /  -6.7 °C 29.86in /  1011.1hPa SW 11.0mph /  17.7km/h 14.0mph /  22.5km/h 70% 0.00in /  0mm
00:49 28.4 °F /  -2 °C 19.9 °F /  -6.7 °C 29.87in /  1011.4hPa West 9.0mph /  14.5km/h 23.0mph /  37km/h 70% 0.00in /  0mm
00:54 28.3 °F /  -2.1 °C 20.1 °F /  -6.6 °C 29.87in /  1011.4hPa West 9.0mph /  14.5km/h 23.0mph /  37km/h 71% 0.00in /  0mm
00:59 28.3 °F /  -2.1 °C 20.1 °F /  -6.6 °C 29.87in /  1011.4hPa West 10.0mph /  16.1km/h 19.0mph /  30.6km/h 71% 0.00in /  0mm
01:05 28.2 °F /  -2.1 °C 20.0 °F /  -6.7 °C 29.87in /  1011.4hPa West 9.0mph /  14.5km/h 19.0mph /  30.6km/h 71% 0.00in /  0mm
01:10 28.2 °F /  -2.1 °C 19.7 °F /  -6.8 °C 29.87in /  1011.4hPa WNW 4.0mph /  6.4km/h 16.0mph /  25.7km/h 70% 0.00in /  0mm
01:15 28.2 °F /  -2.1 °C 19.7 °F /  -6.8 °C 29.88in /  1011.7hPa West 6.0mph /  9.7km/h 15.0mph /  24.1km/h 70% 0.00in /  0mm
01:20 28.3 °F /  -2.1 °C 19.8 °F /  -6.8 °C 29.88in /  1011.7hPa WSW 8.0mph /  12.9km/h 13.0mph /  20.9km/h 70% 0.00in /  0mm
01:25 28.1 °F /  -2.2 °C 19.9 °F /  -6.7 °C 29.88in /  1011.7hPa West 9.0mph /  14.5km/h 18.0mph /  29km/h 71% 0.00in /  0mm
01:30 27.9 °F /  -2.3 °C 20.4 °F /  -6.4 °C 29.88in /  1011.7hPa West 6.0mph /  9.7km/h 15.0mph /  24.1km/h 73% 0.00in /  0mm
01:35 27.7 °F /  -2.4 °C 20.5 °F /  -6.4 °C 29.88in /  1011.7hPa NW 10.0mph /  16.1km/h 10.0mph /  16.1km/h 74% 0.00in /  0mm
01:40 27.7 °F /  -2.4 °C 20.5 °F /  -6.4 °C 29.88in /  1011.7hPa NW 4.0mph /  6.4km/h 16.0mph /  25.7km/h 74% 0.00in /  0mm
01:45 27.6 °F /  -2.4 °C 20.7 °F /  -6.3 °C 29.88in /  1011.7hPa WSW 8.0mph /  12.9km/h 16.0mph /  25.7km/h 75% 0.00in /  0mm
01:50 27.5 °F /  -2.5 °C 20.6 °F /  -6.3 °C 29.88in /  1011.7hPa West 7.0mph /  11.3km/h 15.0mph /  24.1km/h 75% 0.00in /  0mm
01:55 27.5 °F /  -2.5 °C 20.6 °F /  -6.3 °C 29.88in /  1011.7hPa West 7.0mph /  11.3km/h 15.0mph /  24.1km/h 75% 0.00in /  0mm
02:00 27.5 °F /  -2.5 °C 20.3 °F /  -6.5 °C 29.89in /  1012.1hPa West 8.0mph /  12.9km/h 16.0mph /  25.7km/h 74% 0.00in /  0mm
02:05 27.6 °F /  -2.4 °C 20.4 °F /  -6.4 °C 29.89in /  1012.1hPa West 8.0mph /  12.9km/h 20.0mph /  32.2km/h 74% 0.00in /  0mm
02:10 27.5 °F /  -2.5 °C 20.3 °F /  -6.5 °C 29.89in /  1012.1hPa SW 10.0mph /  16.1km/h 16.0mph /  25.7km/h 74% 0.00in /  0mm
02:15 27.5 °F /  -2.5 °C 20.3 °F /  -6.5 °C 29.89in /  1012.1hPa WSW 1.0mph /  1.6km/h 15.0mph /  24.1km/h 74% 0.00in /  0mm
02:20 27.6 °F /  -2.4 °C 20.1 °F /  -6.6 °C 29.89in /  1012.1hPa SW 6.0mph /  9.7km/h 14.0mph /  22.5km/h 73% 0.00in /  0mm
02:25 27.7 °F /  -2.4 °C 19.2 °F /  -7.1 °C 29.89in /  1012.1hPa WSW 9.0mph /  14.5km/h 18.0mph /  29km/h 70% 0.00in /  0mm
02:30 27.8 °F /  -2.3 °C 19.3 °F /  -7.1 °C 29.89in /  1012.1hPa West 10.0mph /  16.1km/h 13.0mph /  20.9km/h 70% 0.00in /  0mm
02:35 27.9 °F /  -2.3 °C 19.4 °F /  -7 °C 29.90in /  1012.4hPa SSW 4.0mph /  6.4km/h 16.0mph /  25.7km/h 70% 0.00in /  0mm
02:40 28.0 °F /  -2.2 °C 19.5 °F /  -6.9 °C 29.90in /  1012.4hPa SW 8.0mph /  12.9km/h 13.0mph /  20.9km/h 70% 0.00in /  0mm
02:45 28.0 °F /  -2.2 °C 19.5 °F /  -6.9 °C 29.90in /  1012.4hPa WSW 7.0mph /  11.3km/h 16.0mph /  25.7km/h 70% 0.00in /  0mm
02:50 27.9 °F /  -2.3 °C 19.4 °F /  -7 °C 29.90in /  1012.4hPa WSW 8.0mph /  12.9km/h 16.0mph /  25.7km/h 70% 0.00in /  0mm
02:55 27.9 °F /  -2.3 °C 19.0 °F /  -7.2 °C 29.90in /  1012.4hPa West 8.0mph /  12.9km/h 14.0mph /  22.5km/h 69% 0.00in /  0mm
03:00 27.8 °F /  -2.3 °C 19.3 °F /  -7.1 °C 29.91in /  1012.8hPa West 8.0mph /  12.9km/h 18.0mph /  29km/h 70% 0.00in /  0mm
03:05 27.8 °F /  -2.3 °C 19.3 °F /  -7.1 °C 29.91in /  1012.8hPa West 9.0mph /  14.5km/h 18.0mph /  29km/h 70% 0.00in /  0mm
03:10 27.6 °F /  -2.4 °C 19.1 °F /  -7.2 °C 29.91in /  1012.8hPa West 9.0mph /  14.5km/h 17.0mph /  27.4km/h 70% 0.00in /  0mm
03:15 27.4 °F /  -2.6 °C 18.9 °F /  -7.3 °C 29.91in /  1012.8hPa WNW 7.0mph /  11.3km/h 12.0mph /  19.3km/h 70% 0.00in /  0mm
03:20 27.4 °F /  -2.6 °C 18.9 °F /  -7.3 °C 29.91in /  1012.8hPa West 7.0mph /  11.3km/h 12.0mph /  19.3km/h 70% 0.00in /  0mm
03:25 27.4 °F /  -2.6 °C 19.2 °F /  -7.1 °C 29.91in /  1012.8hPa West 7.0mph /  11.3km/h 13.0mph /  20.9km/h 71% 0.00in /  0mm
03:30 27.5 °F /  -2.5 °C 19.3 °F /  -7.1 °C 29.91in /  1012.8hPa WNW 5.0mph /  8km/h 10.0mph /  16.1km/h 71% 0.00in /  0mm
03:35 27.5 °F /  -2.5 °C 19.0 °F /  -7.2 °C 29.92in /  1013.1hPa West 6.0mph /  9.7km/h 14.0mph /  22.5km/h 70% 0.00in /  0mm
03:40 27.4 °F /  -2.6 °C 18.9 °F /  -7.3 °C 29.92in /  1013.1hPa West 7.0mph /  11.3km/h 17.0mph /  27.4km/h 70% 0.00in /  0mm
03:45 27.4 °F /  -2.6 °C 18.9 °F /  -7.3 °C 29.92in /  1013.1hPa SW 9.0mph /  14.5km/h 12.0mph /  19.3km/h 70% 0.00in /  0mm
03:50 27.3 °F /  -2.6 °C 18.8 °F /  -7.3 °C 29.92in /  1013.1hPa West 8.0mph /  12.9km/h 18.0mph /  29km/h 70% 0.00in /  0mm
03:55 27.4 °F /  -2.6 °C 18.9 °F /  -7.3 °C 29.92in /  1013.1hPa West 9.0mph /  14.5km/h 18.0mph /  29km/h 70% 0.00in /  0mm
04:00 27.4 °F /  -2.6 °C 18.6 °F /  -7.4 °C 29.92in /  1013.1hPa West 8.0mph /  12.9km/h 22.0mph /  35.4km/h 69% 0.00in /  0mm
04:05 27.4 °F /  -2.6 °C 18.6 °F /  -7.4 °C 29.92in /  1013.1hPa WSW 9.0mph /  14.5km/h 15.0mph /  24.1km/h 69% 0.00in /  0mm
04:10 27.4 °F /  -2.6 °C 18.6 °F /  -7.4 °C 29.92in /  1013.1hPa SW 7.0mph /  11.3km/h 17.0mph /  27.4km/h 69% 0.00in /  0mm
04:15 27.5 °F /  -2.5 °C 18.7 °F /  -7.4 °C 29.93in /  1013.4hPa West 11.0mph /  17.7km/h 18.0mph /  29km/h 69% 0.00in /  0mm
04:20 27.6 °F /  -2.4 °C 18.8 °F /  -7.3 °C 29.93in /  1013.4hPa West 8.0mph /  12.9km/h 18.0mph /  29km/h 69% 0.00in /  0mm
04:25 27.7 °F /  -2.4 °C 18.8 °F /  -7.3 °C 29.93in /  1013.4hPa West 7.0mph /  11.3km/h 14.0mph /  22.5km/h 69% 0.00in /  0mm
04:30 27.8 °F /  -2.3 °C 18.6 °F /  -7.4 °C 29.94in /  1013.8hPa WSW 8.0mph /  12.9km/h 13.0mph /  20.9km/h 68% 0.00in /  0mm
04:35 27.8 °F /  -2.3 °C 18.6 °F /  -7.4 °C 29.94in /  1013.8hPa West 9.0mph /  14.5km/h 16.0mph /  25.7km/h 68% 0.00in /  0mm
04:39 27.7 °F /  -2.4 °C 18.8 °F /  -7.3 °C 29.94in /  1013.8hPa NW 11.0mph /  17.7km/h 13.0mph /  20.9km/h 69% 0.00in /  0mm
04:45 27.6 °F /  -2.4 °C 18.4 °F /  -7.6 °C 29.94in /  1013.8hPa WNW 6.0mph /  9.7km/h 16.0mph /  25.7km/h 68% 0.00in /  0mm
04:50 27.6 °F /  -2.4 °C 18.4 °F /  -7.6 °C 29.95in /  1014.1hPa WSW 5.0mph /  8km/h 13.0mph /  20.9km/h 68% 0.00in /  0mm
04:55 27.6 °F /  -2.4 °C 18.4 °F /  -7.6 °C 29.95in /  1014.1hPa West 6.0mph /  9.7km/h 14.0mph /  22.5km/h 68% 0.00in /  0mm
05:00 27.6 °F /  -2.4 °C 18.4 °F /  -7.6 °C 29.95in /  1014.1hPa West 7.0mph /  11.3km/h 13.0mph /  20.9km/h 68% 0.00in /  0mm
05:05 27.6 °F /  -2.4 °C 18.4 °F /  -7.6 °C 29.95in /  1014.1hPa SW 7.0mph /  11.3km/h 15.0mph /  24.1km/h 68% 0.00in /  0mm
05:10 27.5 °F /  -2.5 °C 18.0 °F /  -7.8 °C 29.95in /  1014.1hPa WNW 4.0mph /  6.4km/h 13.0mph /  20.9km/h 67% 0.00in /  0mm
05:15 27.6 °F /  -2.4 °C 18.4 °F /  -7.6 °C 29.95in /  1014.1hPa WSW 6.0mph /  9.7km/h 18.0mph /  29km/h 68% 0.00in /  0mm
05:20 27.6 °F /  -2.4 °C 18.1 °F /  -7.7 °C 29.96in /  1014.4hPa WSW 10.0mph /  16.1km/h 18.0mph /  29km/h 67% 0.00in /  0mm
05:24 27.6 °F /  -2.4 °C 18.1 °F /  -7.7 °C 29.96in /  1014.4hPa West 7.0mph /  11.3km/h 18.0mph /  29km/h 67% 0.00in /  0mm
05:30 27.6 °F /  -2.4 °C 18.1 °F /  -7.7 °C 29.97in /  1014.8hPa West 7.0mph /  11.3km/h 15.0mph /  24.1km/h 67% 0.00in /  0mm
05:35 27.5 °F /  -2.5 °C 18.3 °F /  -7.6 °C 29.97in /  1014.8hPa West 6.0mph /  9.7km/h 15.0mph /  24.1km/h 68% 0.00in /  0mm
05:40 27.5 °F /  -2.5 °C 18.3 °F /  -7.6 °C 29.97in /  1014.8hPa West 8.0mph /  12.9km/h 18.0mph /  29km/h 68% 0.00in /  0mm
05:44 27.4 °F /  -2.6 °C 18.6 °F /  -7.4 °C 29.98in /  1015.1hPa West 6.0mph /  9.7km/h 13.0mph /  20.9km/h 69% 0.00in /  0mm
05:49 27.3 °F /  -2.6 °C 18.5 °F /  -7.5 °C 29.98in /  1015.1hPa WNW 4.0mph /  6.4km/h 10.0mph /  16.1km/h 69% 0.00in /  0mm
05:55 27.4 °F /  -2.6 °C 18.9 °F /  -7.3 °C 29.98in /  1015.1hPa West 6.0mph /  9.7km/h 16.0mph /  25.7km/h 70% 0.00in /  0mm
06:00 27.3 °F /  -2.6 °C 18.8 °F /  -7.3 °C 29.98in /  1015.1hPa West 5.0mph /  8km/h 15.0mph /  24.1km/h 70% 0.00in /  0mm
06:05 27.4 °F /  -2.6 °C 18.9 °F /  -7.3 °C 29.98in /  1015.1hPa WSW 5.0mph /  8km/h 13.0mph /  20.9km/h 70% 0.00in /  0mm
06:10 27.3 °F /  -2.6 °C 19.1 °F /  -7.2 °C 29.98in /  1015.1hPa WSW 3.0mph /  4.8km/h 11.0mph /  17.7km/h 71% 0.00in /  0mm
06:15 27.3 °F /  -2.6 °C 19.1 °F /  -7.2 °C 29.99in /  1015.5hPa SSW 4.0mph /  6.4km/h 17.0mph /  27.4km/h 71% 0.00in /  0mm
06:19 27.3 °F /  -2.6 °C 18.8 °F /  -7.3 °C 29.99in /  1015.5hPa West 6.0mph /  9.7km/h 17.0mph /  27.4km/h 70% 0.00in /  0mm
06:25 27.3 °F /  -2.6 °C 19.1 °F /  -7.2 °C 29.99in /  1015.5hPa West 6.0mph /  9.7km/h 15.0mph /  24.1km/h 71% 0.00in /  0mm
06:30 27.3 °F /  -2.6 °C 19.1 °F /  -7.2 °C 30.00in /  1015.8hPa West 6.0mph /  9.7km/h 15.0mph /  24.1km/h 71% 0.00in /  0mm
06:35 27.2 °F /  -2.7 °C 19.0 °F /  -7.2 °C 30.00in /  1015.8hPa West 6.0mph /  9.7km/h 14.0mph /  22.5km/h 71% 0.00in /  0mm
06:40 27.2 °F /  -2.7 °C 19.0 °F /  -7.2 °C 30.00in /  1015.8hPa West 6.0mph /  9.7km/h 12.0mph /  19.3km/h 71% 0.00in /  0mm
06:44 27.2 °F /  -2.7 °C 19.0 °F /  -7.2 °C 30.00in /  1015.8hPa West 7.0mph /  11.3km/h 13.0mph /  20.9km/h 71% 0.00in /  0mm
06:49 27.1 °F /  -2.7 °C 18.9 °F /  -7.3 °C 30.00in /  1015.8hPa West 7.0mph /  11.3km/h 13.0mph /  20.9km/h 71% 0.00in /  0mm
06:54 27.0 °F /  -2.8 °C 19.2 °F /  -7.1 °C 30.00in /  1015.8hPa West 7.0mph /  11.3km/h 15.0mph /  24.1km/h 72% 0.00in /  0mm
07:00 26.9 °F /  -2.8 °C 19.1 °F /  -7.2 °C 30.01in /  1016.1hPa West 10.0mph /  16.1km/h 12.0mph /  19.3km/h 72% 0.00in /  0mm
07:05 26.9 °F /  -2.8 °C 19.1 °F /  -7.2 °C 30.01in /  1016.1hPa West 6.0mph /  9.7km/h 12.0mph /  19.3km/h 72% 0.00in /  0mm
07:10 27.0 °F /  -2.8 °C 19.2 °F /  -7.1 °C 30.01in /  1016.1hPa West 6.0mph /  9.7km/h 11.0mph /  17.7km/h 72% 0.00in /  0mm
07:15 27.0 °F /  -2.8 °C 19.5 °F /  -6.9 °C 30.01in /  1016.1hPa West 5.0mph /  8km/h 10.0mph /  16.1km/h 73% 0.00in /  0mm
07:20 27.0 °F /  -2.8 °C 19.5 °F /  -6.9 °C 30.02in /  1016.5hPa WSW 5.0mph /  8km/h 16.0mph /  25.7km/h 73% 0.00in /  0mm
07:24 27.1 °F /  -2.7 °C 19.6 °F /  -6.9 °C 30.02in /  1016.5hPa West 7.0mph /  11.3km/h 16.0mph /  25.7km/h 73% 0.00in /  0mm
07:30 27.0 °F /  -2.8 °C 19.5 °F /  -6.9 °C 30.03in /  1016.8hPa West 7.0mph /  11.3km/h 15.0mph /  24.1km/h 73% 0.00in /  0mm
07:35 27.1 °F /  -2.7 °C 19.6 °F /  -6.9 °C 30.03in /  1016.8hPa West 6.0mph /  9.7km/h 15.0mph /  24.1km/h 73% 0.00in /  0mm
07:40 27.0 °F /  -2.8 °C 19.5 °F /  -6.9 °C 30.03in /  1016.8hPa West 6.0mph /  9.7km/h 13.0mph /  20.9km/h 73% 0.00in /  0mm
07:45 27.0 °F /  -2.8 °C 19.8 °F /  -6.8 °C 30.03in /  1016.8hPa West 6.0mph /  9.7km/h 13.0mph /  20.9km/h 74% 0.00in /  0mm
07:49 27.2 °F /  -2.7 °C 19.7 °F /  -6.8 °C 30.03in /  1016.8hPa WSW 2.0mph /  3.2km/h 10.0mph /  16.1km/h 73% 0.00in /  0mm
07:54 27.2 °F /  -2.7 °C 20.0 °F /  -6.7 °C 30.04in /  1017.2hPa WNW 5.0mph /  8km/h 10.0mph /  16.1km/h 74% 0.00in /  0mm
07:59 27.3 °F /  -2.6 °C 19.8 °F /  -6.8 °C 30.04in /  1017.2hPa West 5.0mph /  8km/h 12.0mph /  19.3km/h 73% 0.00in /  0mm
08:04 27.3 °F /  -2.6 °C 19.5 °F /  -6.9 °C 30.05in /  1017.5hPa West 11.0mph /  17.7km/h 16.0mph /  25.7km/h 72% 0.00in /  0mm
08:09 27.4 °F /  -2.6 °C 19.6 °F /  -6.9 °C 30.05in /  1017.5hPa West 10.0mph /  16.1km/h 11.0mph /  17.7km/h 72% 0.00in /  0mm
08:14 27.4 °F /  -2.6 °C 19.6 °F /  -6.9 °C 30.05in /  1017.5hPa WSW 4.0mph /  6.4km/h 12.0mph /  19.3km/h 72% 0.00in /  0mm
08:19 27.5 °F /  -2.5 °C 20.0 °F /  -6.7 °C 30.05in /  1017.5hPa WSW 4.0mph /  6.4km/h 10.0mph /  16.1km/h 73% 0.00in /  0mm
08:24 27.5 °F /  -2.5 °C 19.7 °F /  -6.8 °C 30.06in /  1017.8hPa West 5.0mph /  8km/h 12.0mph /  19.3km/h 72% 0.00in /  0mm
08:29 27.6 °F /  -2.4 °C 19.8 °F /  -6.8 °C 30.06in /  1017.8hPa West 6.0mph /  9.7km/h 13.0mph /  20.9km/h 72% 0.00in /  0mm
08:35 27.7 °F /  -2.4 °C 19.5 °F /  -6.9 °C 30.06in /  1017.8hPa West 7.0mph /  11.3km/h 14.0mph /  22.5km/h 71% 0.00in /  0mm
08:40 27.8 °F /  -2.3 °C 19.3 °F /  -7.1 °C 30.06in /  1017.8hPa West 3.0mph /  4.8km/h 10.0mph /  16.1km/h 70% 0.00in /  0mm
08:45 27.9 °F /  -2.3 °C 19.7 °F /  -6.8 °C 30.06in /  1017.8hPa West 6.0mph /  9.7km/h 12.0mph /  19.3km/h 71% 0.00in /  0mm
08:50 28.0 °F /  -2.2 °C 19.1 °F /  -7.2 °C 30.06in /  1017.8hPa West 10.0mph /  16.1km/h 14.0mph /  22.5km/h 69% 0.00in /  0mm
08:54 28.0 °F /  -2.2 °C 19.5 °F /  -6.9 °C 30.07in /  1018.2hPa West 7.0mph /  11.3km/h 15.0mph /  24.1km/h 70% 0.00in /  0mm
08:59 28.2 °F /  -2.1 °C 19.7 °F /  -6.8 °C 30.07in /  1018.2hPa West 8.0mph /  12.9km/h 15.0mph /  24.1km/h 70% 0.00in /  0mm
09:04 28.5 °F /  -1.9 °C 20.0 °F /  -6.7 °C 30.07in /  1018.2hPa West 5.0mph /  8km/h 11.0mph /  17.7km/h 70% 0.00in /  0mm
09:14 28.5 °F /  -1.9 °C 19.6 °F /  -6.9 °C 30.07in /  1018.2hPa West 10.0mph /  16.1km/h 14.0mph /  22.5km/h 69% 0.00in /  0mm
09:19 28.7 °F /  -1.8 °C 19.8 °F /  -6.8 °C 30.07in /  1018.2hPa WNW 6.0mph /  9.7km/h 13.0mph /  20.9km/h 69% 0.00in /  0mm
09:24 29.0 °F /  -1.7 °C 19.8 °F /  -6.8 °C 30.07in /  1018.2hPa West 10.0mph /  16.1km/h 14.0mph /  22.5km/h 68% 0.00in /  0mm
09:29 29.5 °F /  -1.4 °C 20.6 °F /  -6.3 °C 30.07in /  1018.2hPa West 7.0mph /  11.3km/h 14.0mph /  22.5km/h 69% 0.00in /  0mm
09:34 29.7 °F /  -1.3 °C 20.4 °F /  -6.4 °C 30.07in /  1018.2hPa WNW 7.0mph /  11.3km/h 13.0mph /  20.9km/h 68% 0.00in /  0mm
09:39 29.7 °F /  -1.3 °C 20.4 °F /  -6.4 °C 30.07in /  1018.2hPa West 3.0mph /  4.8km/h 12.0mph /  19.3km/h 68% 0.00in /  0mm
09:44 29.9 °F /  -1.2 °C 19.9 °F /  -6.7 °C 30.07in /  1018.2hPa WSW 5.0mph /  8km/h 12.0mph /  19.3km/h 66% 0.00in /  0mm
09:50 29.9 °F /  -1.2 °C 18.8 °F /  -7.3 °C 30.08in /  1018.5hPa West 8.0mph /  12.9km/h 15.0mph /  24.1km/h 63% 0.00in /  0mm
09:55 30.0 °F /  -1.1 °C 18.9 °F /  -7.3 °C 30.08in /  1018.5hPa WNW 6.0mph /  9.7km/h 15.0mph /  24.1km/h 63% 0.00in /  0mm
09:59 30.3 °F /  -0.9 °C 19.2 °F /  -7.1 °C 30.08in /  1018.5hPa West 7.0mph /  11.3km/h 15.0mph /  24.1km/h 63% 0.00in /  0mm
10:04 30.3 °F /  -0.9 °C 18.8 °F /  -7.3 °C 30.08in /  1018.5hPa West 8.0mph /  12.9km/h 14.0mph /  22.5km/h 62% 0.00in /  0mm
10:10 30.7 °F /  -0.7 °C 19.2 °F /  -7.1 °C 30.08in /  1018.5hPa West 7.0mph /  11.3km/h 14.0mph /  22.5km/h 62% 0.00in /  0mm
10:15 31.1 °F /  -0.5 °C 19.2 °F /  -7.1 °C 30.08in /  1018.5hPa West 7.0mph /  11.3km/h 13.0mph /  20.9km/h 61% 0.00in /  0mm
10:19 31.1 °F /  -0.5 °C 18.8 °F /  -7.3 °C 30.08in /  1018.5hPa WNW 9.0mph /  14.5km/h 17.0mph /  27.4km/h 60% 0.00in /  0mm
10:24 31.3 °F /  -0.4 °C 17.8 °F /  -7.9 °C 30.08in /  1018.5hPa West 5.0mph /  8km/h 13.0mph /  20.9km/h 57% 0.00in /  0mm
10:29 31.2 °F /  -0.4 °C 17.3 °F /  -8.2 °C 30.08in /  1018.5hPa WSW 7.0mph /  11.3km/h 14.0mph /  22.5km/h 56% 0.00in /  0mm
10:34 31.2 °F /  -0.4 °C 16.9 °F /  -8.4 °C 30.08in /  1018.5hPa SW 5.0mph /  8km/h 14.0mph /  22.5km/h 55% 0.00in /  0mm
10:39 31.4 °F /  -0.3 °C 16.2 °F /  -8.8 °C 30.08in /  1018.5hPa West 12.0mph /  19.3km/h 14.0mph /  22.5km/h 53% 0.00in /  0mm
10:44 31.5 °F /  -0.3 °C 16.3 °F /  -8.7 °C 30.08in /  1018.5hPa West 10.0mph /  16.1km/h 12.0mph /  19.3km/h 53% 0.00in /  0mm
10:49 31.8 °F /  -0.1 °C 17.0 °F /  -8.3 °C 30.08in /  1018.5hPa WSW 4.0mph /  6.4km/h 11.0mph /  17.7km/h 54% 0.00in /  0mm
10:54 33.3 °F /  0.7 °C 18.9 °F /  -7.3 °C 30.08in /  1018.5hPa WSW 11.0mph /  17.7km/h 13.0mph /  20.9km/h 55% 0.00in /  0mm
10:59 32.2 °F /  0.1 °C 17.4 °F /  -8.1 °C 30.09in /  1018.8hPa WSW 8.0mph /  12.9km/h 17.0mph /  27.4km/h 54% 0.00in /  0mm
11:04 32.1 °F /  0.1 °C 16.9 °F /  -8.4 °C 30.09in /  1018.8hPa WSW 10.0mph /  16.1km/h 17.0mph /  27.4km/h 53% 0.00in /  0mm
11:09 32.2 °F /  0.1 °C 15.2 °F /  -9.3 °C 30.09in /  1018.8hPa WSW 9.0mph /  14.5km/h 16.0mph /  25.7km/h 49% 0.00in /  0mm
11:19 31.8 °F /  -0.1 °C 15.3 °F /  -9.3 °C 30.10in /  1019.2hPa WSW 8.0mph /  12.9km/h 16.0mph /  25.7km/h 50% 0.00in /  0mm
11:24 31.7 °F /  -0.2 °C 16.5 °F /  -8.6 °C 30.10in /  1019.2hPa WNW 13.0mph /  20.9km/h 17.0mph /  27.4km/h 53% 0.00in /  0mm
11:29 32.1 °F /  0.1 °C 16.4 °F /  -8.7 °C 30.10in /  1019.2hPa West 7.0mph /  11.3km/h 17.0mph /  27.4km/h 52% 0.00in /  0mm
11:34 31.4 °F /  -0.3 °C 16.7 °F /  -8.5 °C 30.10in /  1019.2hPa West 9.0mph /  14.5km/h 17.0mph /  27.4km/h 54% 0.00in /  0mm
11:39 32.2 °F /  0.1 °C 17.8 °F /  -7.9 °C 30.10in /  1019.2hPa SSW 5.0mph /  8km/h 13.0mph /  20.9km/h 55% 0.00in /  0mm
11:44 31.4 °F /  -0.3 °C 16.7 °F /  -8.5 °C 30.11in /  1019.5hPa SW 9.0mph /  14.5km/h 20.0mph /  32.2km/h 54% 0.00in /  0mm
11:49 31.1 °F /  -0.5 °C 16.8 °F /  -8.4 °C 30.11in /  1019.5hPa WSW 16.0mph /  25.7km/h 18.0mph /  29km/h 55% 0.00in /  0mm
11:54 30.7 °F /  -0.7 °C 16.8 °F /  -8.4 °C 30.11in /  1019.5hPa WSW 5.0mph /  8km/h 22.0mph /  35.4km/h 56% 0.00in /  0mm
11:59 30.8 °F /  -0.7 °C 16.5 °F /  -8.6 °C 30.11in /  1019.5hPa SW 11.0mph /  17.7km/h 20.0mph /  32.2km/h 55% 0.00in /  0mm
12:04 31.1 °F /  -0.5 °C 16.8 °F /  -8.4 °C 30.11in /  1019.5hPa WSW 11.0mph /  17.7km/h 20.0mph /  32.2km/h 55% 0.00in /  0mm
12:09 31.1 °F /  -0.5 °C 16.8 °F /  -8.4 °C 30.11in /  1019.5hPa WSW 11.0mph /  17.7km/h 20.0mph /  32.2km/h 55% 0.00in /  0mm
12:14 31.6 °F /  -0.2 °C 17.7 °F /  -7.9 °C 30.11in /  1019.5hPa WSW 10.0mph /  16.1km/h 21.0mph /  33.8km/h 56% 0.00in /  0mm
12:20 31.6 °F /  -0.2 °C 17.3 °F /  -8.2 °C 30.11in /  1019.5hPa WSW 10.0mph /  16.1km/h 21.0mph /  33.8km/h 55% 0.00in /  0mm
12:25 31.0 °F /  -0.6 °C 18.3 °F /  -7.6 °C 30.11in /  1019.5hPa South 14.0mph /  22.5km/h 19.0mph /  30.6km/h 59% 0.00in /  0mm
12:30 31.3 °F /  -0.4 °C 18.2 °F /  -7.7 °C 30.11in /  1019.5hPa SW 14.0mph /  22.5km/h 19.0mph /  30.6km/h 58% 0.00in /  0mm
12:34 30.9 °F /  -0.6 °C 17.4 °F /  -8.1 °C 30.11in /  1019.5hPa WSW 10.0mph /  16.1km/h 19.0mph /  30.6km/h 57% 0.00in /  0mm
12:39 31.0 °F /  -0.6 °C 17.9 °F /  -7.8 °C 30.11in /  1019.5hPa SW 13.0mph /  20.9km/h 20.0mph /  32.2km/h 58% 0.00in /  0mm
12:44 31.1 °F /  -0.5 °C 17.6 °F /  -8 °C 30.11in /  1019.5hPa SSW 10.0mph /  16.1km/h 20.0mph /  32.2km/h 57% 0.00in /  0mm
12:49 31.6 °F /  -0.2 °C 18.1 °F /  -7.7 °C 30.10in /  1019.2hPa WSW 7.0mph /  11.3km/h 22.0mph /  35.4km/h 57% 0.00in /  0mm
12:54 32.6 °F /  0.3 °C 18.2 °F /  -7.7 °C 30.11in /  1019.5hPa WSW 6.0mph /  9.7km/h 20.0mph /  32.2km/h 55% 0.00in /  0mm
12:59 32.5 °F /  0.3 °C 18.9 °F /  -7.3 °C 30.10in /  1019.2hPa WSW 13.0mph /  20.9km/h 18.0mph /  29km/h 57% 0.00in /  0mm
13:04 33.3 °F /  0.7 °C 19.3 °F /  -7.1 °C 30.10in /  1019.2hPa WSW 9.0mph /  14.5km/h 18.0mph /  29km/h 56% 0.00in /  0mm
13:09 34.0 °F /  1.1 °C 19.1 °F /  -7.2 °C 30.10in /  1019.2hPa WSW 9.0mph /  14.5km/h 20.0mph /  32.2km/h 54% 0.00in /  0mm
13:14 33.0 °F /  0.6 °C 20.2 °F /  -6.6 °C 30.10in /  1019.2hPa WSW 9.0mph /  14.5km/h 20.0mph /  32.2km/h 59% 0.00in /  0mm
13:19 32.2 °F /  0.1 °C 18.7 °F /  -7.4 °C 30.10in /  1019.2hPa SSW 10.0mph /  16.1km/h 21.0mph /  33.8km/h 57% 0.00in /  0mm
13:25 32.4 °F /  0.2 °C 19.3 °F /  -7.1 °C 30.10in /  1019.2hPa SW 11.0mph /  17.7km/h 21.0mph /  33.8km/h 58% 0.00in /  0mm
13:30 32.9 °F /  0.5 °C 19.7 °F /  -6.8 °C 30.10in /  1019.2hPa SW 10.0mph /  16.1km/h 17.0mph /  27.4km/h 58% 0.00in /  0mm
13:34 32.0 °F /  0 °C 19.7 °F /  -6.8 °C 30.10in /  1019.2hPa SW 10.0mph /  16.1km/h 19.0mph /  30.6km/h 60% 0.00in /  0mm
13:39 31.8 °F /  -0.1 °C 19.9 °F /  -6.7 °C 30.10in /  1019.2hPa WSW 11.0mph /  17.7km/h 19.0mph /  30.6km/h 61% 0.00in /  0mm
13:44 32.6 °F /  0.3 °C 21.0 °F /  -6.1 °C 30.10in /  1019.2hPa West 6.0mph /  9.7km/h 19.0mph /  30.6km/h 62% 0.00in /  0mm
13:49 33.3 °F /  0.7 °C 21.3 °F /  -5.9 °C 30.10in /  1019.2hPa WSW 6.0mph /  9.7km/h 18.0mph /  29km/h 61% 0.00in /  0mm
13:54 33.3 °F /  0.7 °C 20.9 °F /  -6.2 °C 30.10in /  1019.2hPa West 5.0mph /  8km/h 17.0mph /  27.4km/h 60% 0.00in /  0mm
13:59 32.5 °F /  0.3 °C 21.3 °F /  -5.9 °C 30.11in /  1019.5hPa SW 14.0mph /  22.5km/h 20.0mph /  32.2km/h 63% 0.00in /  0mm
14:04 31.7 °F /  -0.2 °C 20.2 °F /  -6.6 °C 30.11in /  1019.5hPa WSW 14.0mph /  22.5km/h 20.0mph /  32.2km/h 62% 0.00in /  0mm
14:09 31.1 °F /  -0.5 °C 19.6 °F /  -6.9 °C 30.11in /  1019.5hPa West 7.0mph /  11.3km/h 20.0mph /  32.2km/h 62% 0.00in /  0mm
14:14 31.3 °F /  -0.4 °C 20.5 °F /  -6.4 °C 30.11in /  1019.5hPa WSW 11.0mph /  17.7km/h 20.0mph /  32.2km/h 64% 0.00in /  0mm
14:19 31.2 °F /  -0.4 °C 20.8 °F /  -6.2 °C 30.11in /  1019.5hPa WSW 10.0mph /  16.1km/h 15.0mph /  24.1km/h 65% 0.00in /  0mm
14:24 31.7 °F /  -0.2 °C 20.9 °F /  -6.2 °C 30.11in /  1019.5hPa West 8.0mph /  12.9km/h 18.0mph /  29km/h 64% 0.00in /  0mm
14:29 31.4 °F /  -0.3 °C 20.6 °F /  -6.3 °C 30.11in /  1019.5hPa WNW 17.0mph /  27.4km/h 20.0mph /  32.2km/h 64% 0.00in /  0mm
14:34 31.2 °F /  -0.4 °C 20.8 °F /  -6.2 °C 30.11in /  1019.5hPa WSW 11.0mph /  17.7km/h 17.0mph /  27.4km/h 65% 0.00in /  0mm
14:39 31.0 °F /  -0.6 °C 21.0 °F /  -6.1 °C 30.11in /  1019.5hPa WSW 9.0mph /  14.5km/h 17.0mph /  27.4km/h 66% 0.00in /  0mm
14:44 31.2 °F /  -0.4 °C 21.2 °F /  -6 °C 30.11in /  1019.5hPa WSW 10.0mph /  16.1km/h 23.0mph /  37km/h 66% 0.00in /  0mm
14:49 31.5 °F /  -0.3 °C 20.7 °F /  -6.3 °C 30.12in /  1019.9hPa WSW 11.0mph /  17.7km/h 26.0mph /  41.8km/h 64% 0.00in /  0mm
14:54 31.5 °F /  -0.3 °C 20.7 °F /  -6.3 °C 30.11in /  1019.5hPa WSW 10.0mph /  16.1km/h 26.0mph /  41.8km/h 64% 0.00in /  0mm
14:59 31.3 °F /  -0.4 °C 20.9 °F /  -6.2 °C 30.11in /  1019.5hPa WSW 10.0mph /  16.1km/h 21.0mph /  33.8km/h 65% 0.00in /  0mm
15:04 31.3 °F /  -0.4 °C 21.3 °F /  -5.9 °C 30.11in /  1019.5hPa WSW 9.0mph /  14.5km/h 19.0mph /  30.6km/h 66% 0.00in /  0mm
15:10 31.1 °F /  -0.5 °C 21.1 °F /  -6.1 °C 30.11in /  1019.5hPa SW 12.0mph /  19.3km/h 20.0mph /  32.2km/h 66% 0.00in /  0mm
15:14 31.6 °F /  -0.2 °C 21.9 °F /  -5.6 °C 30.11in /  1019.5hPa SSW 5.0mph /  8km/h 17.0mph /  27.4km/h 67% 0.00in /  0mm
15:19 31.9 °F /  -0.1 °C 20.7 °F /  -6.3 °C 30.11in /  1019.5hPa SW 6.0mph /  9.7km/h 20.0mph /  32.2km/h 63% 0.00in /  0mm
15:24 31.5 °F /  -0.3 °C 20.7 °F /  -6.3 °C 30.11in /  1019.5hPa SSW 16.0mph /  25.7km/h 21.0mph /  33.8km/h 64% 0.00in /  0mm
15:29 31.4 °F /  -0.3 °C 20.6 °F /  -6.3 °C 30.11in /  1019.5hPa South 10.0mph /  16.1km/h 18.0mph /  29km/h 64% 0.00in /  0mm
15:34 32.3 °F /  0.2 °C 21.5 °F /  -5.8 °C 30.11in /  1019.5hPa SSE 13.0mph /  20.9km/h 18.0mph /  29km/h 64% 0.00in /  0mm
15:39 32.3 °F /  0.2 °C 21.5 °F /  -5.8 °C 30.10in /  1019.2hPa SW 8.0mph /  12.9km/h 19.0mph /  30.6km/h 64% 0.00in /  0mm
15:44 32.3 °F /  0.2 °C 21.5 °F /  -5.8 °C 30.10in /  1019.2hPa SW 10.0mph /  16.1km/h 18.0mph /  29km/h 64% 0.00in /  0mm
15:49 31.8 °F /  -0.1 °C 21.0 °F /  -6.1 °C 30.10in /  1019.2hPa WSW 11.0mph /  17.7km/h 22.0mph /  35.4km/h 64% 0.00in /  0mm
15:54 31.7 °F /  -0.2 °C 21.3 °F /  -5.9 °C 30.10in /  1019.2hPa WSW 12.0mph /  19.3km/h 22.0mph /  35.4km/h 65% 0.00in /  0mm
15:59 31.9 °F /  -0.1 °C 21.8 °F /  -5.7 °C 30.10in /  1019.2hPa WSW 11.0mph /  17.7km/h 22.0mph /  35.4km/h 66% 0.00in /  0mm
16:04 31.8 °F /  -0.1 °C 21.4 °F /  -5.9 °C 30.10in /  1019.2hPa WSW 11.0mph /  17.7km/h 22.0mph /  35.4km/h 65% 0.00in /  0mm
16:09 32.1 °F /  0.1 °C 22.0 °F /  -5.6 °C 30.10in /  1019.2hPa SW 8.0mph /  12.9km/h 17.0mph /  27.4km/h 66% 0.00in /  0mm
16:14 32.4 °F /  0.2 °C 22.7 °F /  -5.2 °C 30.10in /  1019.2hPa WNW 5.0mph /  8km/h 13.0mph /  20.9km/h 67% 0.00in /  0mm
16:19 32.1 °F /  0.1 °C 22.0 °F /  -5.6 °C 30.10in /  1019.2hPa SSW 10.0mph /  16.1km/h 20.0mph /  32.2km/h 66% 0.00in /  0mm
16:24 32.0 °F /  0 °C 21.9 °F /  -5.6 °C 30.09in /  1018.8hPa SW 9.0mph /  14.5km/h 20.0mph /  32.2km/h 66% 0.00in /  0mm
16:29 32.2 °F /  0.1 °C 22.5 °F /  -5.3 °C 30.09in /  1018.8hPa SW 9.0mph /  14.5km/h 18.0mph /  29km/h 67% 0.00in /  0mm
16:34 32.3 °F /  0.2 °C 22.6 °F /  -5.2 °C 30.09in /  1018.8hPa SW 8.0mph /  12.9km/h 17.0mph /  27.4km/h 67% 0.00in /  0mm
16:39 32.0 °F /  0 °C 22.6 °F /  -5.2 °C 30.09in /  1018.8hPa West 5.0mph /  8km/h 17.0mph /  27.4km/h 68% 0.00in /  0mm
16:44 32.1 °F /  0.1 °C 23.1 °F /  -4.9 °C 30.09in /  1018.8hPa West 9.0mph /  14.5km/h 13.0mph /  20.9km/h 69% 0.00in /  0mm
16:49 32.0 °F /  0 °C 23.0 °F /  -5 °C 30.10in /  1019.2hPa SW 14.0mph /  22.5km/h 15.0mph /  24.1km/h 69% 0.00in /  0mm
16:54 31.6 °F /  -0.2 °C 22.9 °F /  -5.1 °C 30.10in /  1019.2hPa SW 8.0mph /  12.9km/h 16.0mph /  25.7km/h 70% 0.00in /  0mm
16:59 31.5 °F /  -0.3 °C 23.2 °F /  -4.9 °C 30.09in /  1018.8hPa SW 9.0mph /  14.5km/h 18.0mph /  29km/h 71% 0.00in /  0mm
17:04 31.4 °F /  -0.3 °C 23.1 °F /  -4.9 °C 30.09in /  1018.8hPa SW 8.0mph /  12.9km/h 15.0mph /  24.1km/h 71% 0.00in /  0mm
17:09 31.5 °F /  -0.3 °C 23.5 °F /  -4.7 °C 30.09in /  1018.8hPa WSW 7.0mph /  11.3km/h 13.0mph /  20.9km/h 72% 0.00in /  0mm
17:14 31.4 °F /  -0.3 °C 23.4 °F /  -4.8 °C 30.09in /  1018.8hPa WSW 6.0mph /  9.7km/h 14.0mph /  22.5km/h 72% 0.00in /  0mm
17:19 31.2 °F /  -0.4 °C 23.2 °F /  -4.9 °C 30.09in /  1018.8hPa WSW 5.0mph /  8km/h 15.0mph /  24.1km/h 72% 0.00in /  0mm
17:24 31.2 °F /  -0.4 °C 23.5 °F /  -4.7 °C 30.09in /  1018.8hPa SW 8.0mph /  12.9km/h 15.0mph /  24.1km/h 73% 0.00in /  0mm
17:29 31.1 °F /  -0.5 °C 23.5 °F /  -4.7 °C 30.09in /  1018.8hPa SW 8.0mph /  12.9km/h 16.0mph /  25.7km/h 73% 0.00in /  0mm
17:34 31.0 °F /  -0.6 °C 23.7 °F /  -4.6 °C 30.09in /  1018.8hPa SW 8.0mph /  12.9km/h 16.0mph /  25.7km/h 74% 0.00in /  0mm
17:39 30.9 °F /  -0.6 °C 23.6 °F /  -4.7 °C 30.09in /  1018.8hPa SSW 6.0mph /  9.7km/h 10.0mph /  16.1km/h 74% 0.00in /  0mm
17:44 30.8 °F /  -0.7 °C 23.5 °F /  -4.7 °C 30.09in /  1018.8hPa WSW 7.0mph /  11.3km/h 11.0mph /  17.7km/h 74% 0.00in /  0mm
17:49 30.8 °F /  -0.7 °C 23.8 °F /  -4.6 °C 30.09in /  1018.8hPa SW 8.0mph /  12.9km/h 13.0mph /  20.9km/h 75% 0.00in /  0mm
17:54 30.8 °F /  -0.7 °C 23.8 °F /  -4.6 °C 30.10in /  1019.2hPa SW 8.0mph /  12.9km/h 13.0mph /  20.9km/h 75% 0.00in /  0mm
17:59 30.7 °F /  -0.7 °C 23.7 °F /  -4.6 °C 30.10in /  1019.2hPa SW 8.0mph /  12.9km/h 13.0mph /  20.9km/h 75% 0.00in /  0mm
18:04 30.7 °F /  -0.7 °C 23.7 °F /  -4.6 °C 30.10in /  1019.2hPa WSW 6.0mph /  9.7km/h 13.0mph /  20.9km/h 75% 0.00in /  0mm
18:09 30.6 °F /  -0.8 °C 23.9 °F /  -4.5 °C 30.10in /  1019.2hPa WSW 5.0mph /  8km/h 14.0mph /  22.5km/h 76% 0.00in /  0mm
18:14 30.6 °F /  -0.8 °C 23.9 °F /  -4.5 °C 30.10in /  1019.2hPa SSW 3.0mph /  4.8km/h 10.0mph /  16.1km/h 76% 0.00in /  0mm
18:19 30.6 °F /  -0.8 °C 24.2 °F /  -4.3 °C 30.10in /  1019.2hPa SW 8.0mph /  12.9km/h 11.0mph /  17.7km/h 77% 0.00in /  0mm
18:24 30.6 °F /  -0.8 °C 24.2 °F /  -4.3 °C 30.10in /  1019.2hPa SW 9.0mph /  14.5km/h 10.0mph /  16.1km/h 77% 0.00in /  0mm
18:34 30.7 °F /  -0.7 °C 24.3 °F /  -4.3 °C 30.10in /  1019.2hPa SW 5.0mph /  8km/h 12.0mph /  19.3km/h 77% 0.00in /  0mm
18:39 30.7 °F /  -0.7 °C 24.3 °F /  -4.3 °C 30.10in /  1019.2hPa SW 5.0mph /  8km/h 10.0mph /  16.1km/h 77% 0.00in /  0mm
18:44 30.7 °F /  -0.7 °C 24.7 °F /  -4.1 °C 30.10in /  1019.2hPa SW 5.0mph /  8km/h 10.0mph /  16.1km/h 78% 0.00in /  0mm
18:49 30.7 °F /  -0.7 °C 24.7 °F /  -4.1 °C 30.10in /  1019.2hPa SSW 4.0mph /  6.4km/h 9.0mph /  14.5km/h 78% 0.00in /  0mm
18:54 30.6 °F /  -0.8 °C 24.6 °F /  -4.1 °C 30.09in /  1018.8hPa SSW 7.0mph /  11.3km/h 7.0mph /  11.3km/h 78% 0.00in /  0mm
18:59 30.8 °F /  -0.7 °C 25.1 °F /  -3.8 °C 30.09in /  1018.8hPa South 4.0mph /  6.4km/h 8.0mph /  12.9km/h 79% 0.00in /  0mm
19:04 30.7 °F /  -0.7 °C 25.0 °F /  -3.9 °C 30.10in /  1019.2hPa SSW 5.0mph /  8km/h 7.0mph /  11.3km/h 79% 0.00in /  0mm
19:09 30.7 °F /  -0.7 °C 25.0 °F /  -3.9 °C 30.10in /  1019.2hPa SSW 3.0mph /  4.8km/h 7.0mph /  11.3km/h 79% 0.00in /  0mm
19:14 30.7 °F /  -0.7 °C 25.0 °F /  -3.9 °C 30.10in /  1019.2hPa SSW 1.0mph /  1.6km/h 7.0mph /  11.3km/h 79% 0.00in /  0mm
19:19 30.7 °F /  -0.7 °C 24.7 °F /  -4.1 °C 30.10in /  1019.2hPa SSW 1.0mph /  1.6km/h 7.0mph /  11.3km/h 78% 0.00in /  0mm
19:24 30.7 °F /  -0.7 °C 24.7 °F /  -4.1 °C 30.10in /  1019.2hPa SSW 3.0mph /  4.8km/h 6.0mph /  9.7km/h 78% 0.00in /  0mm
19:29 30.7 °F /  -0.7 °C 24.3 °F /  -4.3 °C 30.09in /  1018.8hPa South 3.0mph /  4.8km/h 7.0mph /  11.3km/h 77% 0.00in /  0mm
19:34 30.6 °F /  -0.8 °C 23.6 °F /  -4.7 °C 30.09in /  1018.8hPa South 5.0mph /  8km/h 9.0mph /  14.5km/h 75% 0.00in /  0mm
19:39 30.6 °F /  -0.8 °C 23.3 °F /  -4.8 °C 30.09in /  1018.8hPa South 4.0mph /  6.4km/h 9.0mph /  14.5km/h 74% 0.00in /  0mm
19:44 30.6 °F /  -0.8 °C 23.0 °F /  -5 °C 30.08in /  1018.5hPa South 5.0mph /  8km/h 7.0mph /  11.3km/h 73% 0.00in /  0mm
19:49 30.4 °F /  -0.9 °C 22.8 °F /  -5.1 °C 30.09in /  1018.8hPa South 4.0mph /  6.4km/h 7.0mph /  11.3km/h 73% 0.00in /  0mm
19:54 30.7 °F /  -0.7 °C 22.4 °F /  -5.3 °C 30.09in /  1018.8hPa SSW 3.0mph /  4.8km/h 9.0mph /  14.5km/h 71% 0.00in /  0mm
19:59 31.2 °F /  -0.4 °C 21.9 °F /  -5.6 °C 30.09in /  1018.8hPa South 4.0mph /  6.4km/h 8.0mph /  12.9km/h 68% 0.00in /  0mm
20:04 31.6 °F /  -0.2 °C 21.9 °F /  -5.6 °C 30.09in /  1018.8hPa SSW 5.0mph /  8km/h 12.0mph /  19.3km/h 67% 0.00in /  0mm
20:09 32.0 °F /  0 °C 21.6 °F /  -5.8 °C 30.09in /  1018.8hPa SSW 8.0mph /  12.9km/h 10.0mph /  16.1km/h 65% 0.00in /  0mm
20:14 32.4 °F /  0.2 °C 21.2 °F /  -6 °C 30.09in /  1018.8hPa South 6.0mph /  9.7km/h 12.0mph /  19.3km/h 63% 0.00in /  0mm
20:19 32.7 °F /  0.4 °C 21.1 °F /  -6.1 °C 30.08in /  1018.5hPa SSW 4.0mph /  6.4km/h 13.0mph /  20.9km/h 62% 0.00in /  0mm
20:24 32.9 °F /  0.5 °C 20.9 °F /  -6.2 °C 30.09in /  1018.8hPa South 6.0mph /  9.7km/h 12.0mph /  19.3km/h 61% 0.00in /  0mm
20:29 33.0 °F /  0.6 °C 20.6 °F /  -6.3 °C 30.09in /  1018.8hPa SSW 6.0mph /  9.7km/h 13.0mph /  20.9km/h 60% 0.00in /  0mm
20:34 33.1 °F /  0.6 °C 20.7 °F /  -6.3 °C 30.09in /  1018.8hPa SSW 6.0mph /  9.7km/h 13.0mph /  20.9km/h 60% 0.00in /  0mm
20:39 33.1 °F /  0.6 °C 20.3 °F /  -6.5 °C 30.09in /  1018.8hPa SSW 5.0mph /  8km/h 12.0mph /  19.3km/h 59% 0.00in /  0mm
20:44 33.2 °F /  0.7 °C 20.4 °F /  -6.4 °C 30.10in /  1019.2hPa SSW 6.0mph /  9.7km/h 12.0mph /  19.3km/h 59% 0.00in /  0mm
20:49 33.2 °F /  0.7 °C 20.4 °F /  -6.4 °C 30.10in /  1019.2hPa SSW 6.0mph /  9.7km/h 12.0mph /  19.3km/h 59% 0.00in /  0mm
20:54 33.3 °F /  0.7 °C 20.1 °F /  -6.6 °C 30.10in /  1019.2hPa SSW 6.0mph /  9.7km/h 12.0mph /  19.3km/h 58% 0.00in /  0mm
20:59 33.3 °F /  0.7 °C 20.5 °F /  -6.4 °C 30.10in /  1019.2hPa SSW 6.0mph /  9.7km/h 13.0mph /  20.9km/h 59% 0.00in /  0mm
21:04 33.4 °F /  0.8 °C 20.2 °F /  -6.6 °C 30.10in /  1019.2hPa West 7.0mph /  11.3km/h 10.0mph /  16.1km/h 58% 0.00in /  0mm
21:09 33.5 °F /  0.8 °C 20.3 °F /  -6.5 °C 30.10in /  1019.2hPa South 6.0mph /  9.7km/h 15.0mph /  24.1km/h 58% 0.00in /  0mm
21:14 33.5 °F /  0.8 °C 20.3 °F /  -6.5 °C 30.11in /  1019.5hPa South 9.0mph /  14.5km/h 12.0mph /  19.3km/h 58% 0.00in /  0mm
21:19 33.5 °F /  0.8 °C 20.7 °F /  -6.3 °C 30.11in /  1019.5hPa WSW 6.0mph /  9.7km/h 12.0mph /  19.3km/h 59% 0.00in /  0mm
21:24 33.4 °F /  0.8 °C 20.6 °F /  -6.3 °C 30.11in /  1019.5hPa SSW 7.0mph /  11.3km/h 11.0mph /  17.7km/h 59% 0.00in /  0mm
21:29 33.4 °F /  0.8 °C 20.6 °F /  -6.3 °C 30.11in /  1019.5hPa SSW 6.0mph /  9.7km/h 16.0mph /  25.7km/h 59% 0.00in /  0mm
21:34 33.4 °F /  0.8 °C 20.6 °F /  -6.3 °C 30.11in /  1019.5hPa SSW 5.0mph /  8km/h 16.0mph /  25.7km/h 59% 0.00in /  0mm
21:39 33.4 °F /  0.8 °C 20.6 °F /  -6.3 °C 30.11in /  1019.5hPa SSW 5.0mph /  8km/h 11.0mph /  17.7km/h 59% 0.00in /  0mm
21:44 33.4 °F /  0.8 °C 20.6 °F /  -6.3 °C 30.11in /  1019.5hPa SSW 5.0mph /  8km/h 11.0mph /  17.7km/h 59% 0.00in /  0mm
21:49 33.3 °F /  0.7 °C 20.5 °F /  -6.4 °C 30.11in /  1019.5hPa SW 10.0mph /  16.1km/h 11.0mph /  17.7km/h 59% 0.00in /  0mm
21:54 33.4 °F /  0.8 °C 20.6 °F /  -6.3 °C 30.11in /  1019.5hPa SSW 9.0mph /  14.5km/h 12.0mph /  19.3km/h 59% 0.00in /  0mm
21:59 33.4 °F /  0.8 °C 20.6 °F /  -6.3 °C 30.11in /  1019.5hPa SSW 5.0mph /  8km/h 12.0mph /  19.3km/h 59% 0.00in /  0mm
22:04 33.4 °F /  0.8 °C 20.6 °F /  -6.3 °C 30.11in /  1019.5hPa SSW 5.0mph /  8km/h 10.0mph /  16.1km/h 59% 0.00in /  0mm
22:09 33.5 °F /  0.8 °C 20.7 °F /  -6.3 °C 30.11in /  1019.5hPa South 7.0mph /  11.3km/h 11.0mph /  17.7km/h 59% 0.00in /  0mm
22:14 33.7 °F /  0.9 °C 20.5 °F /  -6.4 °C 30.11in /  1019.5hPa WSW 7.0mph /  11.3km/h 14.0mph /  22.5km/h 58% 0.00in /  0mm
22:19 33.7 °F /  0.9 °C 20.5 °F /  -6.4 °C 30.11in /  1019.5hPa SW 4.0mph /  6.4km/h 9.0mph /  14.5km/h 58% 0.00in /  0mm
22:24 33.9 °F /  1.1 °C 20.7 °F /  -6.3 °C 30.12in /  1019.9hPa SW 8.0mph /  12.9km/h 13.0mph /  20.9km/h 58% 0.00in /  0mm
22:29 34.0 °F /  1.1 °C 20.3 °F /  -6.5 °C 30.12in /  1019.9hPa SW 6.0mph /  9.7km/h 13.0mph /  20.9km/h 57% 0.00in /  0mm
22:34 34.2 °F /  1.2 °C 20.5 °F /  -6.4 °C 30.11in /  1019.5hPa SW 6.0mph /  9.7km/h 13.0mph /  20.9km/h 57% 0.00in /  0mm
22:39 34.3 °F /  1.3 °C 20.6 °F /  -6.3 °C 30.11in /  1019.5hPa WSW 4.0mph /  6.4km/h 11.0mph /  17.7km/h 57% 0.00in /  0mm
22:44 34.2 °F /  1.2 °C 20.5 °F /  -6.4 °C 30.11in /  1019.5hPa SSW 5.0mph /  8km/h 11.0mph /  17.7km/h 57% 0.00in /  0mm
22:49 34.3 °F /  1.3 °C 20.6 °F /  -6.3 °C 30.11in /  1019.5hPa WSW 6.0mph /  9.7km/h 10.0mph /  16.1km/h 57% 0.00in /  0mm
22:54 34.4 °F /  1.3 °C 20.7 °F /  -6.3 °C 30.12in /  1019.9hPa SW 6.0mph /  9.7km/h 12.0mph /  19.3km/h 57% 0.00in /  0mm
22:59 34.6 °F /  1.4 °C 20.9 °F /  -6.2 °C 30.12in /  1019.9hPa SSW 5.0mph /  8km/h 12.0mph /  19.3km/h 57% 0.00in /  0mm
23:04 34.8 °F /  1.6 °C 21.1 °F /  -6.1 °C 30.12in /  1019.9hPa SSW 5.0mph /  8km/h 11.0mph /  17.7km/h 57% 0.00in /  0mm
23:09 35.1 °F /  1.7 °C 21.0 °F /  -6.1 °C 30.12in /  1019.9hPa SSW 5.0mph /  8km/h 11.0mph /  17.7km/h 56% 0.00in /  0mm
23:14 35.4 °F /  1.9 °C 21.2 °F /  -6 °C 30.12in /  1019.9hPa SSW 6.0mph /  9.7km/h 10.0mph /  16.1km/h 56% 0.00in /  0mm
23:19 35.6 °F /  2 °C 21.0 °F /  -6.1 °C 30.12in /  1019.9hPa WSW 5.0mph /  8km/h 9.0mph /  14.5km/h 55% 0.00in /  0mm
23:24 35.6 °F /  2 °C 21.0 °F /  -6.1 °C 30.11in /  1019.5hPa SSW 5.0mph /  8km/h 10.0mph /  16.1km/h 55% 0.00in /  0mm
23:29 35.6 °F /  2 °C 21.0 °F /  -6.1 °C 30.12in /  1019.9hPa SSW 5.0mph /  8km/h 13.0mph /  20.9km/h 55% 0.00in /  0mm
23:34 35.9 °F /  2.2 °C 20.9 °F /  -6.2 °C 30.12in /  1019.9hPa SSW 7.0mph /  11.3km/h 14.0mph /  22.5km/h 54% 0.00in /  0mm
23:39 35.9 °F /  2.2 °C 20.9 °F /  -6.2 °C 30.12in /  1019.9hPa SSW 7.0mph /  11.3km/h 16.0mph /  25.7km/h 54% 0.00in /  0mm
23:44 35.7 °F /  2.1 °C 20.7 °F /  -6.3 °C 30.12in /  1019.9hPa WSW 7.0mph /  11.3km/h 12.0mph /  19.3km/h 54% 0.00in /  0mm
23:49 35.7 °F /  2.1 °C 21.1 °F /  -6.1 °C 30.12in /  1019.9hPa WSW 3.0mph /  4.8km/h 11.0mph /  17.7km/h 55% 0.00in /  0mm
23:54 35.6 °F /  2 °C 20.6 °F /  -6.3 °C 30.12in /  1019.9hPa SSW 6.0mph /  9.7km/h 12.0mph /  19.3km/h 54% 0.00in /  0mm
23:59 35.7 °F /  2.1 °C 20.7 °F /  -6.3 °C 30.12in /  1019.9hPa SSW 6.0mph /  9.7km/h 12.0mph /  19.3km/h 54% 0.00in /  0mm
Buffalo, New York, USA
Compliments of Weather Underground - 2.5 mb